Pagrindinis puslapis
METAR-TAF:

METAR-TAF

Oro uostai :

Jakutskas, Rusija

platuma: 62-01N, ilguma: 129-43E, Aukštis: 103 m

Dabartinis oras

Ataskaita buvo paskelbta 24 minutes, ne 03:00 UTC
Vėjas 4 kt iš Šiaurės/Šiaurės Rytų
Temperatūra -25°C
Drėgmė 76%
Slėgis 1022 hPa
Matomumas 10 km arba daugiau
sniegas

METAR: UEEE 170300Z 03002MPS 9999 -SN NSC M25/M28 Q1022 R23L/490148 NOSIG RMK QFE758

Laikas: 12:24 (03:24 UTC)

Prognozė

Ataskaita buvo paskelbta 1 valandą ir 24 minutes, ne 02:00 UTC
Prognozė galioja nuo 17 metu 03 UTC su 18 metu 09 UTC
Vėjas 6 kt iš Šiaurės/Šiaurės Rytų
Matomumas 10 km arba daugiau
Išsisklaidę debesys ne aukštis 1500 ft
Apsiniaukę ne aukštis 7000 ft
sniegas
Laikinai
nuo 17 metu 03 UTC su 17 metu 12 UTC
Matomumas: 3200 m
sniegas

TAF: UEEE 170200Z 1703/1809 02003MPS 9999 -SN SCT015 OVC070 TEMPO 1703/1712 3200 -SN

Orai ataskaitas ir orų prognozės (METAR, TAF).

turimą stotys yra geltonos ir raudonos taškus žemėlapyje.

Perkelti pele per norėdami pamatyti stoties vardą.

Tada spustelėkite, norėdami matyti oro stebėjimo ir prognozės.

Norėdami pakeisti žemėlapį: spustelėkite ant žalios mygtukų su juodo kryžiaus žemyn,; žalią mygtuką su brūkšneliu, jei norite nutolinti; arba žalių rodyklių gretimoms žemėlapius.


METAR-TAF: